Аэропорт: Братск. Братск

ICAO: UIBB

METAR:
2018/11/19 10:00
UIBB 191000Z 25006MPS 230V290 9999 BKN015CB M15/M19 Q1018 R30/490345 NOSIG RMK QFE721/0961
METAR:
2018/11/19 09:21
TAF UIBB 190800Z 1909/2009 25005G10MPS 6000 -SHSN DRSN BKN013CB 
      TEMPO 1909/1918 2900 -SHSN